sensor_id;sensor_type;location;lat;lon;timestamp;pressure;altitude;pressure_sealevel;temperature
40245;BMP280;25963;42.694;23.600;2024-01-15T00:02:21;94614.84;;;-6.12
40245;BMP280;25963;42.694;23.600;2024-01-15T00:04:46;94595.19;;;-6.24
40245;BMP280;25963;42.694;23.600;2024-01-15T00:07:11;94597.03;;;-6.24
40245;BMP280;25963;42.694;23.600;2024-01-15T00:09:37;94606.66;;;-6.18
40245;BMP280;25963;42.694;23.600;2024-01-15T00:12:03;94598.53;;;-6.23
40245;BMP280;25963;42.694;23.600;2024-01-15T00:14:28;94610.38;;;-6.29
40245;BMP280;25963;42.694;23.600;2024-01-15T00:16:54;94607.78;;;-6.26
40245;BMP280;25963;42.694;23.600;2024-01-15T00:19:23;94602.22;;;-6.38
40245;BMP280;25963;42.694;23.600;2024-01-15T00:21:49;94601.13;;;-6.27
40245;BMP280;25963;42.694;23.600;2024-01-15T00:24:15;94603.72;;;-6.30
40245;BMP280;25963;42.694;23.600;2024-01-15T00:26:40;94557.69;;;-6.65
40245;BMP280;25963;42.694;23.600;2024-01-15T00:29:09;94570.34;;;-6.49
40245;BMP280;25963;42.694;23.600;2024-01-15T00:31:35;94621.88;;;-6.23
40245;BMP280;25963;42.694;23.600;2024-01-15T00:34:01;94607.06;;;-6.26
40245;BMP280;25963;42.694;23.600;2024-01-15T00:36:26;94616.34;;;-6.25
40245;BMP280;25963;42.694;23.600;2024-01-15T00:38:52;94565.84;;;-6.63
40245;BMP280;25963;42.694;23.600;2024-01-15T00:41:18;94605.19;;;-6.36
40245;BMP280;25963;42.694;23.600;2024-01-15T00:43:47;94607.78;;;-6.36
40245;BMP280;25963;42.694;23.600;2024-01-15T00:46:14;94617.06;;;-6.39
40245;BMP280;25963;42.694;23.600;2024-01-15T00:48:39;94608.13;;;-6.48
40245;BMP280;25963;42.694;23.600;2024-01-15T00:51:05;94599.63;;;-6.52
40245;BMP280;25963;42.694;23.600;2024-01-15T00:53:30;94612.22;;;-6.47
40245;BMP280;25963;42.694;23.600;2024-01-15T00:55:56;94610.72;;;-6.48
40245;BMP280;25963;42.694;23.600;2024-01-15T00:58:22;94613.31;;;-6.48
40245;BMP280;25963;42.694;23.600;2024-01-15T01:00:47;94606.28;;;-6.51
40245;BMP280;25963;42.694;23.600;2024-01-15T01:03:13;94592.56;;;-6.66
40245;BMP280;25963;42.694;23.600;2024-01-15T01:05:38;94594.75;;;-6.58
40245;BMP280;25963;42.694;23.600;2024-01-15T01:08:04;94568.78;;;-6.79
40245;BMP280;25963;42.694;23.600;2024-01-15T01:10:30;94608.84;;;-6.55
40245;BMP280;25963;42.694;23.600;2024-01-15T01:12:56;94598.47;;;-6.59
40245;BMP280;25963;42.694;23.600;2024-01-15T01:15:21;94599.56;;;-6.60
40245;BMP280;25963;42.694;23.600;2024-01-15T01:17:46;94596.25;;;-6.57
40245;BMP280;25963;42.694;23.600;2024-01-15T01:20:12;94603.69;;;-6.51
40245;BMP280;25963;42.694;23.600;2024-01-15T01:22:39;94591.84;;;-6.52
40245;BMP280;25963;42.694;23.600;2024-01-15T01:25:05;94579.97;;;-6.53
40245;BMP280;25963;42.694;23.600;2024-01-15T01:27:31;94590.34;;;-6.53
40245;BMP280;25963;42.694;23.600;2024-01-15T01:29:56;94579.94;;;-6.57
40245;BMP280;25963;42.694;23.600;2024-01-15T01:32:22;94585.16;;;-6.53
40245;BMP280;25963;42.694;23.600;2024-01-15T01:34:47;94590.69;;;-6.51
40245;BMP280;25963;42.694;23.600;2024-01-15T01:37:13;94591.84;;;-6.52
40245;BMP280;25963;42.694;23.600;2024-01-15T01:39:39;94588.44;;;-6.57
40245;BMP280;25963;42.694;23.600;2024-01-15T01:42:05;94586.59;;;-6.60
40245;BMP280;25963;42.694;23.600;2024-01-15T01:44:30;94590.28;;;-6.68
40245;BMP280;25963;42.694;23.600;2024-01-15T01:46:57;94591.75;;;-6.74
40245;BMP280;25963;42.694;23.600;2024-01-15T01:49:24;94512.69;;;-7.29
40245;BMP280;25963;42.694;23.600;2024-01-15T01:51:50;94578.75;;;-6.88
40245;BMP280;25963;42.694;23.600;2024-01-15T01:54:16;94582.84;;;-6.83
40245;BMP280;25963;42.694;23.600;2024-01-15T01:56:42;94547.97;;;-7.11
40245;BMP280;25963;42.694;23.600;2024-01-15T01:59:09;94572.44;;;-6.94
40245;BMP280;25963;42.694;23.600;2024-01-15T02:01:35;94568.72;;;-6.93
40245;BMP280;25963;42.694;23.600;2024-01-15T02:04:01;94559.88;;;-6.92
40245;BMP280;25963;42.694;23.600;2024-01-15T02:06:26;94574.69;;;-6.89
40245;BMP280;25963;42.694;23.600;2024-01-15T02:08:53;94565.41;;;-6.90
40245;BMP280;25963;42.694;23.600;2024-01-15T02:11:18;94566.53;;;-6.84
40245;BMP280;25963;42.694;23.600;2024-01-15T02:13:44;94561.72;;;-6.82
40245;BMP280;25963;42.694;23.600;2024-01-15T02:16:09;94563.22;;;-6.81
40245;BMP280;25963;42.694;23.600;2024-01-15T02:18:45;94562.47;;;-6.81
40245;BMP280;25963;42.694;23.600;2024-01-15T02:21:11;94548.03;;;-6.86
40245;BMP280;25963;42.694;23.600;2024-01-15T02:23:38;94539.09;;;-6.95
40245;BMP280;25963;42.694;23.600;2024-01-15T02:26:04;94530.19;;;-7.05
40245;BMP280;25963;42.694;23.600;2024-01-15T02:28:30;94546.13;;;-6.96
40245;BMP280;25963;42.694;23.600;2024-01-15T02:30:57;94523.91;;;-7.04
40245;BMP280;25963;42.694;23.600;2024-01-15T02:33:23;94544.28;;;-6.99
40245;BMP280;25963;42.694;23.600;2024-01-15T02:35:48;94532.44;;;-6.96
40245;BMP280;25963;42.694;23.600;2024-01-15T02:38:15;94535.78;;;-6.99
40245;BMP280;25963;42.694;23.600;2024-01-15T02:40:41;94529.09;;;-7.00
40245;BMP280;25963;42.694;23.600;2024-01-15T02:43:07;94525.75;;;-7.01
40245;BMP280;25963;42.694;23.600;2024-01-15T02:45:32;94515.72;;;-7.06
40245;BMP280;25963;42.694;23.600;2024-01-15T02:47:58;94515.03;;;-7.03
40245;BMP280;25963;42.694;23.600;2024-01-15T02:50:23;94491.28;;;-7.09
40245;BMP280;25963;42.694;23.600;2024-01-15T02:52:49;94483.50;;;-7.12
40245;BMP280;25963;42.694;23.600;2024-01-15T02:55:14;94496.47;;;-7.12
40245;BMP280;25963;42.694;23.600;2024-01-15T02:57:40;94481.66;;;-7.08
40245;BMP280;25963;42.694;23.600;2024-01-15T03:00:05;94482.75;;;-7.09
40245;BMP280;25963;42.694;23.600;2024-01-15T03:02:32;94488.72;;;-7.01
40245;BMP280;25963;42.694;23.600;2024-01-15T03:04:58;94490.94;;;-7.00
40245;BMP280;25963;42.694;23.600;2024-01-15T03:07:23;94476.13;;;-6.99
40245;BMP280;25963;42.694;23.600;2024-01-15T03:09:48;94484.28;;;-6.94
40245;BMP280;25963;42.694;23.600;2024-01-15T03:12:15;94460.19;;;-7.05
40245;BMP280;25963;42.694;23.600;2024-01-15T03:14:40;94467.97;;;-6.98
40245;BMP280;25963;42.694;23.600;2024-01-15T03:17:06;94468.34;;;-6.92
40245;BMP280;25963;42.694;23.600;2024-01-15T03:19:34;94428.31;;;-7.27
40245;BMP280;25963;42.694;23.600;2024-01-15T03:22:00;94436.09;;;-7.23
40245;BMP280;25963;42.694;23.600;2024-01-15T03:24:28;94458.75;;;-6.92
40245;BMP280;25963;42.694;23.600;2024-01-15T03:26:53;94459.44;;;-6.98
40245;BMP280;25963;42.694;23.600;2024-01-15T03:29:19;94465.03;;;-6.86
40245;BMP280;25963;42.694;23.600;2024-01-15T03:31:44;94474.31;;;-6.78
40245;BMP280;25963;42.694;23.600;2024-01-15T03:34:09;94465.03;;;-6.72
40245;BMP280;25963;42.694;23.600;2024-01-15T03:36:35;94472.44;;;-6.67
40245;BMP280;25963;42.694;23.600;2024-01-15T03:39:00;94471.72;;;-6.64
40245;BMP280;25963;42.694;23.600;2024-01-15T03:41:26;94462.06;;;-6.60
40245;BMP280;25963;42.694;23.600;2024-01-15T03:43:51;94465.00;;;-6.58
40245;BMP280;25963;42.694;23.600;2024-01-15T03:46:16;94455.38;;;-6.68
40245;BMP280;25963;42.694;23.600;2024-01-15T03:48:42;94459.84;;;-6.65
40245;BMP280;25963;42.694;23.600;2024-01-15T03:51:07;94468.00;;;-6.63
40245;BMP280;25963;42.694;23.600;2024-01-15T03:53:33;94448.72;;;-6.62
40245;BMP280;25963;42.694;23.600;2024-01-15T03:55:58;94449.44;;;-6.58
40245;BMP280;25963;42.694;23.600;2024-01-15T03:58:24;94445.75;;;-6.60
40245;BMP280;25963;42.694;23.600;2024-01-15T04:00:49;94447.63;;;-6.53
40245;BMP280;25963;42.694;23.600;2024-01-15T04:03:15;94443.91;;;-6.38
40245;BMP280;25963;42.694;23.600;2024-01-15T04:05:40;94441.28;;;-6.31
40245;BMP280;25963;42.694;23.600;2024-01-15T04:08:06;94428.28;;;-6.24
40245;BMP280;25963;42.694;23.600;2024-01-15T04:10:31;94446.44;;;-6.14
40245;BMP280;25963;42.694;23.600;2024-01-15T04:12:57;94360.50;;;-6.58
40245;BMP280;25963;42.694;23.600;2024-01-15T04:15:24;94393.81;;;-6.25
40245;BMP280;25963;42.694;23.600;2024-01-15T04:17:50;94436.34;;;-5.87
40245;BMP280;25963;42.694;23.600;2024-01-15T04:20:16;94407.44;;;-5.96
40245;BMP280;25963;42.694;23.600;2024-01-15T04:22:41;94443.34;;;-5.70
40245;BMP280;25963;42.694;23.600;2024-01-15T04:25:07;94381.47;;;-5.99
40245;BMP280;25963;42.694;23.600;2024-01-15T04:27:32;94458.88;;;-5.63
40245;BMP280;25963;42.694;23.600;2024-01-15T04:29:58;94454.09;;;-5.68
40245;BMP280;25963;42.694;23.600;2024-01-15T04:32:23;94448.94;;;-5.75
40245;BMP280;25963;42.694;23.600;2024-01-15T04:34:49;94450.38;;;-5.74
40245;BMP280;25963;42.694;23.600;2024-01-15T04:37:14;94461.19;;;-5.79
40245;BMP280;25963;42.694;23.600;2024-01-15T04:39:40;94456.34;;;-5.77
40245;BMP280;25963;42.694;23.600;2024-01-15T04:42:05;94400.81;;;-6.22
40245;BMP280;25963;42.694;23.600;2024-01-15T04:44:30;94440.78;;;-5.91
40245;BMP280;25963;42.694;23.600;2024-01-15T04:46:56;94447.88;;;-5.91
40245;BMP280;25963;42.694;23.600;2024-01-15T04:49:21;94444.94;;;-5.97
40245;BMP280;25963;42.694;23.600;2024-01-15T04:51:47;94422.31;;;-6.14
40245;BMP280;25963;42.694;23.600;2024-01-15T04:54:12;94416.03;;;-6.13
40245;BMP280;25963;42.694;23.600;2024-01-15T04:56:38;94433.47;;;-6.17
40245;BMP280;25963;42.694;23.600;2024-01-15T04:59:03;94429.72;;;-6.16
40245;BMP280;25963;42.694;23.600;2024-01-15T05:01:32;94433.06;;;-6.16
40245;BMP280;25963;42.694;23.600;2024-01-15T05:03:58;94442.72;;;-6.16
40245;BMP280;25963;42.694;23.600;2024-01-15T05:06:24;94436.41;;;-6.19
40245;BMP280;25963;42.694;23.600;2024-01-15T05:08:49;94421.25;;;-6.24
40245;BMP280;25963;42.694;23.600;2024-01-15T05:11:14;94423.84;;;-6.24
40245;BMP280;25963;42.694;23.600;2024-01-15T05:13:40;94427.91;;;-6.30
40245;BMP280;25963;42.694;23.600;2024-01-15T05:16:06;94439.44;;;-6.31
40245;BMP280;25963;42.694;23.600;2024-01-15T05:18:31;94433.13;;;-6.37
40245;BMP280;25963;42.694;23.600;2024-01-15T05:20:56;94427.56;;;-6.35
40245;BMP280;25963;42.694;23.600;2024-01-15T05:23:22;94429.44;;;-6.36
40245;BMP280;25963;42.694;23.600;2024-01-15T05:25:47;94405.34;;;-6.47
40245;BMP280;25963;42.694;23.600;2024-01-15T05:28:14;94430.16;;;-6.35
40245;BMP280;25963;42.694;23.600;2024-01-15T05:30:39;94404.59;;;-6.40
40245;BMP280;25963;42.694;23.600;2024-01-15T05:33:05;94399.75;;;-6.35
40245;BMP280;25963;42.694;23.600;2024-01-15T05:35:30;94397.91;;;-6.38
40245;BMP280;25963;42.694;23.600;2024-01-15T05:37:55;94402.34;;;-6.35
40245;BMP280;25963;42.694;23.600;2024-01-15T05:40:21;94407.53;;;-6.35
40245;BMP280;25963;42.694;23.600;2024-01-15T05:42:46;94396.75;;;-6.30
40245;BMP280;25963;42.694;23.600;2024-01-15T05:45:12;94401.22;;;-6.27
40245;BMP280;25963;42.694;23.600;2024-01-15T05:47:37;94386.75;;;-6.24
40245;BMP280;25963;42.694;23.600;2024-01-15T05:50:03;94369.00;;;-6.43
40245;BMP280;25963;42.694;23.600;2024-01-15T05:52:28;94386.38;;;-6.23
40245;BMP280;25963;42.694;23.600;2024-01-15T05:54:54;94376.75;;;-6.26
40245;BMP280;25963;42.694;23.600;2024-01-15T05:57:19;94305.31;;;-6.69
40245;BMP280;25963;42.694;23.600;2024-01-15T05:59:45;94383.34;;;-6.07
40245;BMP280;25963;42.694;23.600;2024-01-15T06:02:11;94381.50;;;-6.03
40245;BMP280;25963;42.694;23.600;2024-01-15T06:04:37;94333.75;;;-6.30
40245;BMP280;25963;42.694;23.600;2024-01-15T06:07:02;94381.47;;;-5.96
40245;BMP280;25963;42.694;23.600;2024-01-15T06:09:28;94368.44;;;-5.89
40245;BMP280;25963;42.694;23.600;2024-01-15T06:11:54;94360.63;;;-5.85
40245;BMP280;25963;42.694;23.600;2024-01-15T06:14:19;94366.16;;;-5.76
40245;BMP280;25963;42.694;23.600;2024-01-15T06:16:45;94318.78;;;-6.05
40245;BMP280;25963;42.694;23.600;2024-01-15T06:19:10;94370.19;;;-5.65
40245;BMP280;25963;42.694;23.600;2024-01-15T06:21:35;94338.03;;;-5.92
40245;BMP280;25963;42.694;23.600;2024-01-15T06:24:01;94407.25;;;-5.50
40245;BMP280;25963;42.694;23.600;2024-01-15T06:26:26;94418.34;;;-5.46
40245;BMP280;25963;42.694;23.600;2024-01-15T06:28:54;94412.38;;;-5.46
40245;BMP280;25963;42.694;23.600;2024-01-15T06:31:20;94355.41;;;-5.78
40245;BMP280;25963;42.694;23.600;2024-01-15T06:33:46;94409.38;;;-5.38
40245;BMP280;25963;42.694;23.600;2024-01-15T06:36:13;94402.31;;;-5.34
40245;BMP280;25963;42.694;23.600;2024-01-15T06:38:39;94410.03;;;-5.20
40245;BMP280;25963;42.694;23.600;2024-01-15T06:41:04;94418.50;;;-5.12
40245;BMP280;25963;42.694;23.600;2024-01-15T06:43:30;94390.66;;;-5.15
40245;BMP280;25963;42.694;23.600;2024-01-15T06:45:55;94397.19;;;-4.96
40245;BMP280;25963;42.694;23.600;2024-01-15T06:48:21;94391.25;;;-4.97
40245;BMP280;25963;42.694;23.600;2024-01-15T06:50:46;94401.53;;;-4.79
40245;BMP280;25963;42.694;23.600;2024-01-15T06:53:12;94389.59;;;-4.77
40245;BMP280;25963;42.694;23.600;2024-01-15T06:55:38;94397.25;;;-4.59
40245;BMP280;25963;42.694;23.600;2024-01-15T06:58:04;94396.06;;;-4.51
40245;BMP280;25963;42.694;23.600;2024-01-15T07:00:38;94365.00;;;-4.69
40245;BMP280;25963;42.694;23.600;2024-01-15T07:03:05;94407.69;;;-4.25
40245;BMP280;25963;42.694;23.600;2024-01-15T07:05:31;94397.16;;;-4.15
40245;BMP280;25963;42.694;23.600;2024-01-15T07:07:57;94393.00;;;-4.09
40245;BMP280;25963;42.694;23.600;2024-01-15T07:10:22;94391.28;;;-3.88
40245;BMP280;25963;42.694;23.600;2024-01-15T07:12:48;94394.78;;;-3.72
40245;BMP280;25963;42.694;23.600;2024-01-15T07:15:14;94383.72;;;-3.53
40245;BMP280;25963;42.694;23.600;2024-01-15T07:17:40;94406.22;;;-3.35
40245;BMP280;25963;42.694;23.600;2024-01-15T07:20:09;94414.53;;;-3.17
40245;BMP280;25963;42.694;23.600;2024-01-15T07:22:37;94393.09;;;-3.05
40245;BMP280;25963;42.694;23.600;2024-01-15T07:25:04;94362.03;;;-3.23
40245;BMP280;25963;42.694;23.600;2024-01-15T07:27:30;94409.88;;;-2.83
40245;BMP280;25963;42.694;23.600;2024-01-15T07:29:56;94395.16;;;-2.73
40245;BMP280;25963;42.694;23.600;2024-01-15T07:32:27;94395.00;;;-2.63
40245;BMP280;25963;42.694;23.600;2024-01-15T07:34:53;94411.63;;;-2.53
40245;BMP280;25963;42.694;23.600;2024-01-15T07:37:18;94422.81;;;-2.53
40245;BMP280;25963;42.694;23.600;2024-01-15T07:39:47;94387.47;;;-2.80
40245;BMP280;25963;42.694;23.600;2024-01-15T07:42:16;94377.44;;;-2.82
40245;BMP280;25963;42.694;23.600;2024-01-15T07:44:42;94412.50;;;-2.60
40245;BMP280;25963;42.694;23.600;2024-01-15T07:47:07;94415.78;;;-2.56
40245;BMP280;25963;42.694;23.600;2024-01-15T07:49:34;94416.91;;;-2.57
40245;BMP280;25963;42.694;23.600;2024-01-15T07:52:00;94423.66;;;-2.59
40245;BMP280;25963;42.694;23.600;2024-01-15T07:54:26;94429.31;;;-2.61
40245;BMP280;25963;42.694;23.600;2024-01-15T07:57:01;94426.31;;;-2.63
40245;BMP280;25963;42.694;23.600;2024-01-15T07:59:29;94345.66;;;-3.23
40245;BMP280;25963;42.694;23.600;2024-01-15T08:01:55;94422.38;;;-2.71
40245;BMP280;25963;42.694;23.600;2024-01-15T08:04:20;94421.00;;;-2.79
40245;BMP280;25963;42.694;23.600;2024-01-15T08:06:47;94433.47;;;-2.67
40245;BMP280;25963;42.694;23.600;2024-01-15T08:09:13;94450.53;;;-2.62
40245;BMP280;25963;42.694;23.600;2024-01-15T08:11:42;94435.25;;;-2.60
40245;BMP280;25963;42.694;23.600;2024-01-15T08:14:08;94444.50;;;-2.56
40245;BMP280;25963;42.694;23.600;2024-01-15T08:16:35;94431.06;;;-2.54
40245;BMP280;25963;42.694;23.600;2024-01-15T08:19:00;94416.59;;;-2.62
40245;BMP280;25963;42.694;23.600;2024-01-15T08:21:26;94398.28;;;-2.59
40245;BMP280;25963;42.694;23.600;2024-01-15T08:23:55;94378.19;;;-2.62
40245;BMP280;25963;42.694;23.600;2024-01-15T08:26:21;94375.78;;;-2.53
40245;BMP280;25963;42.694;23.600;2024-01-15T08:28:46;94379.09;;;-2.49
40245;BMP280;25963;42.694;23.600;2024-01-15T08:31:12;94385.91;;;-2.35
40245;BMP280;25963;42.694;23.600;2024-01-15T08:33:37;94388.41;;;-2.28
40245;BMP280;25963;42.694;23.600;2024-01-15T08:36:03;94388.94;;;-2.17
40245;BMP280;25963;42.694;23.600;2024-01-15T08:38:29;94401.72;;;-2.03
40245;BMP280;25963;42.694;23.600;2024-01-15T08:40:54;94394.38;;;-1.92
40245;BMP280;25963;42.694;23.600;2024-01-15T08:43:22;94392.38;;;-1.84
40245;BMP280;25963;42.694;23.600;2024-01-15T08:45:47;94397.16;;;-1.63
40245;BMP280;25963;42.694;23.600;2024-01-15T08:48:13;94385.06;;;-1.57
40245;BMP280;25963;42.694;23.600;2024-01-15T08:50:38;94375.09;;;-1.46
40245;BMP280;25963;42.694;23.600;2024-01-15T08:53:04;94369.78;;;-1.42
40245;BMP280;25963;42.694;23.600;2024-01-15T08:55:32;94355.97;;;-1.43
40245;BMP280;25963;42.694;23.600;2024-01-15T08:57:58;94314.09;;;-1.59
40245;BMP280;25963;42.694;23.600;2024-01-15T09:00:23;94357.28;;;-1.19
40245;BMP280;25963;42.694;23.600;2024-01-15T09:02:49;94342.69;;;-1.03
40245;BMP280;25963;42.694;23.600;2024-01-15T09:05:14;94292.84;;;-1.29
40245;BMP280;25963;42.694;23.600;2024-01-15T09:07:43;94334.72;;;-0.84
40245;BMP280;25963;42.694;23.600;2024-01-15T09:10:08;94324.16;;;-0.80
40245;BMP280;25963;42.694;23.600;2024-01-15T09:12:34;94314.13;;;-0.69
40245;BMP280;25963;42.694;23.600;2024-01-15T09:14:59;94318.44;;;-0.63
40245;BMP280;25963;42.694;23.600;2024-01-15T09:17:25;94321.81;;;-0.49
40245;BMP280;25963;42.694;23.600;2024-01-15T09:19:53;94300.84;;;-0.49
40245;BMP280;25963;42.694;23.600;2024-01-15T09:22:18;94292.78;;;-0.42
40245;BMP280;25963;42.694;23.600;2024-01-15T09:24:45;94291.13;;;-0.36
40245;BMP280;25963;42.694;23.600;2024-01-15T09:27:10;94290.84;;;-0.26
40245;BMP280;25963;42.694;23.600;2024-01-15T09:29:36;94285.50;;;-0.22
40245;BMP280;25963;42.694;23.600;2024-01-15T09:32:05;94255.41;;;-0.05
40245;BMP280;25963;42.694;23.600;2024-01-15T09:34:31;94201.72;;;-0.26
40245;BMP280;25963;42.694;23.600;2024-01-15T09:36:56;94243.28;;;0.23
40245;BMP280;25963;42.694;23.600;2024-01-15T09:39:21;94268.41;;;0.45
40245;BMP280;25963;42.694;23.600;2024-01-15T09:41:49;94282.03;;;0.66
40245;BMP280;25963;42.694;23.600;2024-01-15T09:44:15;94275.66;;;0.88
40245;BMP280;25963;42.694;23.600;2024-01-15T09:46:41;94258.44;;;1.09
40245;BMP280;25963;42.694;23.600;2024-01-15T09:49:08;94257.19;;;1.23
40245;BMP280;25963;42.694;23.600;2024-01-15T09:51:35;94258.44;;;1.40
40245;BMP280;25963;42.694;23.600;2024-01-15T09:54:02;94202.75;;;1.23
40245;BMP280;25963;42.694;23.600;2024-01-15T09:56:27;94234.00;;;1.61
40245;BMP280;25963;42.694;23.600;2024-01-15T09:58:53;94231.38;;;1.61
40245;BMP280;25963;42.694;23.600;2024-01-15T10:01:20;94220.34;;;1.75
40245;BMP280;25963;42.694;23.600;2024-01-15T10:03:46;94229.72;;;1.94
40245;BMP280;25963;42.694;23.600;2024-01-15T10:06:15;94218.69;;;2.17
40245;BMP280;25963;42.694;23.600;2024-01-15T10:08:43;94202.00;;;2.29
40245;BMP280;25963;42.694;23.600;2024-01-15T10:11:12;94208.47;;;2.56
40245;BMP280;25963;42.694;23.600;2024-01-15T10:13:38;94214.72;;;2.67
40245;BMP280;25963;42.694;23.600;2024-01-15T10:16:04;94197.34;;;2.61
40245;BMP280;25963;42.694;23.600;2024-01-15T10:18:30;94129.91;;;2.45
40245;BMP280;25963;42.694;23.600;2024-01-15T10:20:56;94178.53;;;2.95
40245;BMP280;25963;42.694;23.600;2024-01-15T10:23:24;94143.72;;;2.91
40245;BMP280;25963;42.694;23.600;2024-01-15T10:25:49;94175.78;;;3.31
40245;BMP280;25963;42.694;23.600;2024-01-15T10:28:16;94168.66;;;3.46
40245;BMP280;25963;42.694;23.600;2024-01-15T10:30:44;94164.81;;;3.56
40245;BMP280;25963;42.694;23.600;2024-01-15T10:33:09;94164.22;;;3.61
40245;BMP280;25963;42.694;23.600;2024-01-15T10:35:37;94177.09;;;3.68
40245;BMP280;25963;42.694;23.600;2024-01-15T10:38:05;94167.03;;;3.82
40245;BMP280;25963;42.694;23.600;2024-01-15T10:40:31;94153.09;;;3.81
40245;BMP280;25963;42.694;23.600;2024-01-15T10:42:56;94166.81;;;3.94
40245;BMP280;25963;42.694;23.600;2024-01-15T10:45:22;94159.81;;;4.06
40245;BMP280;25963;42.694;23.600;2024-01-15T10:47:48;94147.28;;;4.15
40245;BMP280;25963;42.694;23.600;2024-01-15T10:50:14;94133.00;;;4.22
40245;BMP280;25963;42.694;23.600;2024-01-15T10:52:40;94150.78;;;4.36
40245;BMP280;25963;42.694;23.600;2024-01-15T10:55:09;94132.84;;;4.40
40245;BMP280;25963;42.694;23.600;2024-01-15T10:57:36;94126.56;;;4.37
40245;BMP280;25963;42.694;23.600;2024-01-15T11:00:02;94087.56;;;4.18
40245;BMP280;25963;42.694;23.600;2024-01-15T11:02:32;94112.28;;;4.44
40245;BMP280;25963;42.694;23.600;2024-01-15T11:04:58;94121.75;;;4.51
40245;BMP280;25963;42.694;23.600;2024-01-15T11:07:24;94111.91;;;4.51
40245;BMP280;25963;42.694;23.600;2024-01-15T11:09:51;94107.00;;;4.44
40245;BMP280;25963;42.694;23.600;2024-01-15T11:12:16;94110.06;;;4.42
40245;BMP280;25963;42.694;23.600;2024-01-15T11:14:49;94107.59;;;4.39
40245;BMP280;25963;42.694;23.600;2024-01-15T11:17:16;94112.44;;;4.26
40245;BMP280;25963;42.694;23.600;2024-01-15T11:19:45;94121.72;;;4.36
40245;BMP280;25963;42.694;23.600;2024-01-15T11:24:54;94105.06;;;4.59
40245;BMP280;25963;42.694;23.600;2024-01-15T11:27:46;94108.81;;;4.67
40245;BMP280;25963;42.694;23.600;2024-01-15T11:30:19;94118.91;;;4.83
40245;BMP280;25963;42.694;23.600;2024-01-15T11:32:45;94103.84;;;4.89
40245;BMP280;25963;42.694;23.600;2024-01-15T11:35:13;94092.53;;;5.03
40245;BMP280;25963;42.694;23.600;2024-01-15T11:40:22;94101.84;;;4.99
40245;BMP280;25963;42.694;23.600;2024-01-15T11:42:48;94067.09;;;4.91
40245;BMP280;25963;42.694;23.600;2024-01-15T11:45:20;94071.13;;;5.01
40245;BMP280;25963;42.694;23.600;2024-01-15T11:50:24;94076.66;;;5.03
40245;BMP280;25963;42.694;23.600;2024-01-15T11:52:57;94064.63;;;5.02
40245;BMP280;25963;42.694;23.600;2024-01-15T11:55:30;94067.41;;;5.13
40245;BMP280;25963;42.694;23.600;2024-01-15T11:58:00;94086.06;;;5.25
40245;BMP280;25963;42.694;23.600;2024-01-15T12:00:26;94069.97;;;5.08
40245;BMP280;25963;42.694;23.600;2024-01-15T12:02:52;94069.97;;;5.08
40245;BMP280;25963;42.694;23.600;2024-01-15T12:05:18;94090.50;;;5.13
40245;BMP280;25963;42.694;23.600;2024-01-15T12:07:46;94086.72;;;4.99
40245;BMP280;25963;42.694;23.600;2024-01-15T12:10:14;94068.97;;;4.85
40245;BMP280;25963;42.694;23.600;2024-01-15T12:12:59;94064.84;;;4.84
40245;BMP280;25963;42.694;23.600;2024-01-15T12:15:26;94045.19;;;4.56
40245;BMP280;25963;42.694;23.600;2024-01-15T12:17:54;94073.78;;;4.72
40245;BMP280;25963;42.694;23.600;2024-01-15T12:20:21;94071.97;;;4.64
40245;BMP280;25963;42.694;23.600;2024-01-15T12:22:46;94066.91;;;4.60
40245;BMP280;25963;42.694;23.600;2024-01-15T12:25:12;94074.72;;;4.55
40245;BMP280;25963;42.694;23.600;2024-01-15T12:27:40;94061.63;;;4.46
40245;BMP280;25963;42.694;23.600;2024-01-15T12:30:06;94056.69;;;4.38
40245;BMP280;25963;42.694;23.600;2024-01-15T12:32:32;94062.16;;;4.20
40245;BMP280;25963;42.694;23.600;2024-01-15T12:35:00;94060.97;;;4.21
40245;BMP280;25963;42.694;23.600;2024-01-15T12:37:26;94005.13;;;3.70
40245;BMP280;25963;42.694;23.600;2024-01-15T12:39:52;94057.38;;;3.95
40245;BMP280;25963;42.694;23.600;2024-01-15T12:42:21;94037.13;;;3.63
40245;BMP280;25963;42.694;23.600;2024-01-15T12:44:47;94033.78;;;3.62
40245;BMP280;25963;42.694;23.600;2024-01-15T12:47:12;94019.34;;;3.49
40245;BMP280;25963;42.694;23.600;2024-01-15T12:49:39;94034.66;;;3.59
40245;BMP280;25963;42.694;23.600;2024-01-15T12:52:08;93985.25;;;3.22
40245;BMP280;25963;42.694;23.600;2024-01-15T12:54:34;93982.75;;;3.27
40245;BMP280;25963;42.694;23.600;2024-01-15T12:56:59;94012.34;;;3.46
40245;BMP280;25963;42.694;23.600;2024-01-15T12:59:25;94016.63;;;3.43
40245;BMP280;25963;42.694;23.600;2024-01-15T13:01:50;94003.78;;;3.36
40245;BMP280;25963;42.694;23.600;2024-01-15T13:04:22;94000.81;;;3.43
40245;BMP280;25963;42.694;23.600;2024-01-15T13:06:52;93998.97;;;3.49
40245;BMP280;25963;42.694;23.600;2024-01-15T13:09:18;94000.00;;;3.52
40245;BMP280;25963;42.694;23.600;2024-01-15T13:11:47;93990.53;;;3.45
40245;BMP280;25963;42.694;23.600;2024-01-15T13:14:13;93967.59;;;3.51
40245;BMP280;25963;42.694;23.600;2024-01-15T13:16:40;93991.03;;;3.58
40245;BMP280;25963;42.694;23.600;2024-01-15T13:19:09;93993.66;;;3.58
40245;BMP280;25963;42.694;23.600;2024-01-15T13:21:37;93986.63;;;3.55
40245;BMP280;25963;42.694;23.600;2024-01-15T13:24:02;93978.16;;;3.51
40245;BMP280;25963;42.694;23.600;2024-01-15T13:26:35;93975.97;;;3.50
40245;BMP280;25963;42.694;23.600;2024-01-15T13:29:04;93934.44;;;3.21
40245;BMP280;25963;42.694;23.600;2024-01-15T13:31:32;93965.78;;;3.43
40245;BMP280;25963;42.694;23.600;2024-01-15T13:33:58;93950.53;;;3.23
40245;BMP280;25963;42.694;23.600;2024-01-15T13:36:27;93981.69;;;3.48
40245;BMP280;25963;42.694;23.600;2024-01-15T13:38:53;93960.69;;;3.39
40245;BMP280;25963;42.694;23.600;2024-01-15T13:41:19;93930.09;;;3.18
40245;BMP280;25963;42.694;23.600;2024-01-15T13:43:49;93983.34;;;3.46
40245;BMP280;25963;42.694;23.600;2024-01-15T13:46:15;93982.69;;;3.51
40245;BMP280;25963;42.694;23.600;2024-01-15T13:48:42;93976.72;;;3.50
40245;BMP280;25963;42.694;23.600;2024-01-15T13:51:08;93982.53;;;3.54
40245;BMP280;25963;42.694;23.600;2024-01-15T13:53:33;93974.19;;;3.56
40245;BMP280;25963;42.694;23.600;2024-01-15T13:55:58;93970.34;;;3.57
40245;BMP280;25963;42.694;23.600;2024-01-15T13:58:24;93977.47;;;3.65
40245;BMP280;25963;42.694;23.600;2024-01-15T14:00:51;93973.19;;;3.68
40245;BMP280;25963;42.694;23.600;2024-01-15T14:03:17;93965.91;;;3.63
40245;BMP280;25963;42.694;23.600;2024-01-15T14:05:42;93966.03;;;3.68